createdAt,value
2017-10-31T00:00:45.380Z,94.13
2017-10-31T00:01:45.428Z,93.94
2017-10-31T00:02:45.316Z,94.42
2017-10-31T00:03:45.442Z,94.13
2017-10-31T00:04:45.267Z,94.32
2017-10-31T00:05:45.352Z,94.42
2017-10-31T00:06:45.210Z,94.51
2017-10-31T00:07:45.263Z,94.32
2017-10-31T00:08:45.152Z,94.70
2017-10-31T00:09:45.277Z,94.60
2017-10-31T00:10:45.101Z,94.22
2017-10-31T00:11:45.188Z,94.42
2017-10-31T00:12:45.036Z,94.32
2017-10-31T00:13:45.099Z,94.70
2017-10-31T00:14:44.987Z,94.60
2017-10-31T00:15:45.114Z,94.32
2017-10-31T00:16:44.938Z,94.42
2017-10-31T00:17:45.025Z,94.32
2017-10-31T00:18:44.871Z,94.13
2017-10-31T00:19:44.935Z,94.03
2017-10-31T00:20:44.827Z,94.42
2017-10-31T00:21:44.950Z,93.65
2017-10-31T00:22:44.762Z,93.94
2017-10-31T00:23:44.861Z,94.32
2017-10-31T00:24:44.705Z,94.42
2017-10-31T00:25:44.774Z,94.13
2017-10-31T00:26:44.649Z,93.84
2017-10-31T00:27:44.786Z,94.42
2017-10-31T00:28:44.602Z,94.22
2017-10-31T00:29:44.703Z,94.42
2017-10-31T00:30:44.541Z,94.32
2017-10-31T00:31:44.612Z,94.13
2017-10-31T00:32:44.482Z,94.32
2017-10-31T00:33:44.624Z,94.79
2017-10-31T00:34:44.424Z,94.60
2017-10-31T00:35:44.534Z,94.22
2017-10-31T00:36:44.374Z,93.94
2017-10-31T00:37:44.447Z,93.94
2017-10-31T00:38:44.315Z,94.03
2017-10-31T00:39:44.463Z,94.70
2017-10-31T00:40:44.261Z,94.51
2017-10-31T00:41:44.372Z,94.98
2017-10-31T00:42:44.208Z,94.79
2017-10-31T00:43:44.282Z,94.89
2017-10-31T00:44:44.150Z,95.08
2017-10-31T00:45:44.296Z,94.51
2017-10-31T00:46:44.093Z,94.98
2017-10-31T00:47:44.208Z,95.56
2017-10-31T00:48:44.040Z,95.17
2017-10-31T00:49:44.120Z,95.36
2017-10-31T00:50:43.978Z,95.36
2017-10-31T00:51:44.132Z,95.46
2017-10-31T00:52:43.931Z,95.27
2017-10-31T00:53:44.043Z,95.46
2017-10-31T00:54:43.873Z,95.46
2017-10-31T00:55:43.955Z,95.36
2017-10-31T00:56:43.811Z,95.46
2017-10-31T00:57:43.971Z,95.75
2017-10-31T00:58:43.758Z,95.36
2017-10-31T00:59:43.880Z,95.36
2017-10-31T01:00:43.707Z,94.79
2017-10-31T01:01:43.790Z,94.98
2017-10-31T01:02:43.651Z,94.42
2017-10-31T01:03:43.806Z,94.22
2017-10-31T01:04:43.606Z,93.94
2017-10-31T01:05:43.716Z,94.70
2017-10-31T01:06:43.542Z,94.89
2017-10-31T01:07:43.628Z,94.60
2017-10-31T01:08:43.496Z,94.60
2017-10-31T01:09:43.647Z,95.08
2017-10-31T01:10:43.427Z,94.79
2017-10-31T01:11:43.554Z,94.70
2017-10-31T01:12:43.374Z,94.79
2017-10-31T01:13:43.466Z,95.27
2017-10-31T01:14:43.317Z,95.17
2017-10-31T01:15:43.483Z,95.56
2017-10-31T01:16:43.265Z,95.36
2017-10-31T01:17:44.413Z,95.84
2017-10-31T01:18:43.211Z,95.46
2017-10-31T01:19:43.305Z,95.65
2017-10-31T01:20:43.153Z,95.94
2017-10-31T01:21:43.319Z,96.03
2017-10-31T01:22:43.099Z,95.65
2017-10-31T01:23:43.229Z,95.65
2017-10-31T01:24:43.045Z,95.75
2017-10-31T01:25:43.142Z,95.65
2017-10-31T01:26:42.987Z,96.12
2017-10-31T01:27:43.154Z,96.41
2017-10-31T01:28:42.930Z,95.84
2017-10-31T01:29:43.067Z,95.27
2017-10-31T01:30:42.871Z,95.46
2017-10-31T01:31:42.979Z,95.27
2017-10-31T01:32:42.819Z,95.65
2017-10-31T01:33:42.997Z,95.46
2017-10-31T01:34:42.765Z,95.36
2017-10-31T01:35:42.905Z,95.56
2017-10-31T01:36:42.707Z,95.75
2017-10-31T01:37:42.717Z,95.75
2017-10-31T01:38:42.655Z,96.03
2017-10-31T01:39:42.728Z,96.31
2017-10-31T01:40:42.603Z,95.84
2017-10-31T01:41:42.638Z,95.65
2017-10-31T01:42:42.542Z,95.84
2017-10-31T01:43:42.552Z,96.22
2017-10-31T01:44:42.485Z,95.65
2017-10-31T01:45:42.582Z,95.56
2017-10-31T01:46:42.441Z,95.56
2017-10-31T01:47:42.474Z,95.65
2017-10-31T01:48:42.375Z,95.75
2017-10-31T01:49:42.392Z,95.65
2017-10-31T01:50:42.321Z,95.84
2017-10-31T01:51:42.401Z,95.84
2017-10-31T01:52:42.266Z,95.84
2017-10-31T01:53:42.312Z,96.03
2017-10-31T01:54:42.205Z,96.50
2017-10-31T01:55:42.223Z,96.12
2017-10-31T01:56:42.154Z,95.65
2017-10-31T01:57:42.236Z,96.03
2017-10-31T01:58:42.098Z,96.03
2017-10-31T01:59:42.147Z,96.03
2017-10-31T02:00:42.041Z,95.65
2017-10-31T02:01:42.064Z,95.84
2017-10-31T02:02:41.989Z,95.46
2017-10-31T02:03:42.074Z,95.84
2017-10-31T02:04:41.936Z,95.84
2017-10-31T02:05:41.984Z,96.31
2017-10-31T02:06:41.873Z,96.31
2017-10-31T02:07:41.902Z,96.03
2017-10-31T02:08:41.820Z,96.03
2017-10-31T02:09:41.920Z,96.03
2017-10-31T02:10:41.763Z,96.12
2017-10-31T02:11:41.827Z,96.03
2017-10-31T02:12:41.714Z,96.22
2017-10-31T02:13:41.732Z,96.12
2017-10-31T02:14:41.653Z,96.41
2017-10-31T02:15:41.755Z,96.60
2017-10-31T02:16:41.599Z,96.12
2017-10-31T02:17:41.661Z,96.79
2017-10-31T02:18:41.543Z,96.60
2017-10-31T02:19:41.574Z,96.41
2017-10-31T02:20:41.484Z,96.03
2017-10-31T02:21:41.593Z,96.03
2017-10-31T02:22:41.427Z,96.12
2017-10-31T02:23:41.510Z,96.69
2017-10-31T02:24:41.368Z,96.60
2017-10-31T02:25:41.416Z,96.22
2017-10-31T02:26:41.317Z,96.03
2017-10-31T02:27:41.430Z,96.12
2017-10-31T02:28:41.262Z,96.41
2017-10-31T02:29:41.336Z,96.31
2017-10-31T02:30:41.203Z,96.69
2017-10-31T02:31:41.249Z,96.60
2017-10-31T02:32:41.155Z,96.69
2017-10-31T02:33:41.164Z,96.50
2017-10-31T02:34:41.093Z,96.69
2017-10-31T02:35:41.174Z,96.69
2017-10-31T02:36:41.036Z,96.98
2017-10-31T02:37:41.084Z,96.60
2017-10-31T02:38:40.985Z,96.41
2017-10-31T02:39:41.096Z,96.50
2017-10-31T02:40:40.923Z,97.08
2017-10-31T02:41:41.009Z,97.08
2017-10-31T02:42:40.871Z,96.98
2017-10-31T02:43:40.918Z,97.17
2017-10-31T02:44:40.813Z,96.69
2017-10-31T02:45:40.937Z,96.79
2017-10-31T02:46:40.759Z,96.69
2017-10-31T02:47:40.843Z,97.08
2017-10-31T02:48:40.701Z,97.17
2017-10-31T02:49:40.754Z,96.79
2017-10-31T02:50:40.643Z,96.60
2017-10-31T02:51:40.769Z,97.36
2017-10-31T02:52:40.593Z,96.60
2017-10-31T02:53:40.682Z,97.27
2017-10-31T02:54:40.533Z,97.17
2017-10-31T02:55:40.598Z,96.79
2017-10-31T02:56:40.476Z,97.17
2017-10-31T02:57:40.605Z,96.98
2017-10-31T02:58:40.421Z,96.98
2017-10-31T02:59:40.521Z,96.89
2017-10-31T03:00:40.361Z,97.36
2017-10-31T03:01:40.428Z,96.89
2017-10-31T03:02:40.306Z,97.17
2017-10-31T03:03:40.445Z,96.60
2017-10-31T03:04:40.248Z,96.79
2017-10-31T03:05:40.354Z,96.98
2017-10-31T03:06:40.196Z,96.79
2017-10-31T03:07:40.264Z,97.55
2017-10-31T03:08:40.139Z,97.55
2017-10-31T03:09:40.279Z,97.36
2017-10-31T03:10:40.083Z,97.55
2017-10-31T03:11:40.190Z,97.36
2017-10-31T03:12:40.029Z,97.83
2017-10-31T03:13:40.102Z,97.64
2017-10-31T03:14:39.968Z,96.89
2017-10-31T03:15:40.112Z,97.45
2017-10-31T03:16:39.912Z,97.93
2017-10-31T03:17:40.026Z,96.89
2017-10-31T03:18:39.863Z,97.64
2017-10-31T03:19:39.938Z,97.55
2017-10-31T03:20:39.802Z,97.36
2017-10-31T03:21:39.953Z,97.64
2017-10-31T03:22:39.743Z,97.93
2017-10-31T03:23:39.863Z,97.27
2017-10-31T03:24:39.689Z,97.83
2017-10-31T03:25:39.775Z,97.93
2017-10-31T03:26:39.640Z,98.12
2017-10-31T03:27:39.790Z,97.45
2017-10-31T03:28:39.576Z,97.64
2017-10-31T03:29:39.700Z,98.12
2017-10-31T03:30:39.524Z,98.03
2017-10-31T03:31:39.612Z,98.12
2017-10-31T03:32:39.465Z,98.12
2017-10-31T03:33:39.625Z,98.03
2017-10-31T03:34:39.418Z,98.03
2017-10-31T03:35:39.537Z,98.03
2017-10-31T03:36:39.349Z,97.74
2017-10-31T03:37:39.449Z,97.74
2017-10-31T03:38:39.293Z,97.93
2017-10-31T03:39:39.464Z,98.03
2017-10-31T03:40:39.238Z,98.22
2017-10-31T03:41:39.373Z,98.50
2017-10-31T03:42:39.184Z,97.93
2017-10-31T03:43:39.283Z,98.22
2017-10-31T03:44:39.128Z,97.74
2017-10-31T03:45:39.300Z,98.03
2017-10-31T03:46:39.071Z,98.60
2017-10-31T03:47:39.209Z,98.69
2017-10-31T03:48:39.013Z,98.60
2017-10-31T03:49:39.122Z,98.31
2017-10-31T03:50:38.963Z,98.31
2017-10-31T03:51:39.179Z,98.60
2017-10-31T03:52:38.901Z,98.60
2017-10-31T03:53:39.048Z,98.03
2017-10-31T03:54:38.847Z,98.31
2017-10-31T03:55:38.959Z,98.60
2017-10-31T03:56:38.791Z,98.60
2017-10-31T03:57:38.970Z,98.22
2017-10-31T03:58:38.729Z,98.60
2017-10-31T03:59:38.885Z,97.93
2017-10-31T04:00:38.677Z,97.93
2017-10-31T04:01:38.794Z,98.22
2017-10-31T04:02:38.622Z,98.60
2017-10-31T04:03:39.732Z,98.41
2017-10-31T04:04:38.563Z,98.50
2017-10-31T04:05:38.719Z,98.41
2017-10-31T04:06:38.510Z,98.31
2017-10-31T04:07:38.531Z,99.16
2017-10-31T04:08:38.454Z,98.31
2017-10-31T04:09:38.545Z,98.31
2017-10-31T04:10:38.394Z,98.12
2017-10-31T04:11:38.454Z,98.31
2017-10-31T04:12:38.357Z,98.22
2017-10-31T04:13:38.364Z,98.50
2017-10-31T04:14:38.279Z,98.41
2017-10-31T04:15:38.383Z,98.31
2017-10-31T04:16:38.226Z,98.31
2017-10-31T04:17:38.290Z,98.50
2017-10-31T04:18:38.166Z,99.07
2017-10-31T04:19:38.204Z,98.88
2017-10-31T04:20:38.112Z,98.97
2017-10-31T04:21:38.216Z,98.79
2017-10-31T04:22:38.056Z,98.41
2017-10-31T04:23:38.128Z,98.50
2017-10-31T04:24:38.005Z,98.22
2017-10-31T04:25:38.039Z,98.50
2017-10-31T04:26:37.943Z,98.50
2017-10-31T04:27:37.948Z,98.50
2017-10-31T04:28:37.891Z,98.22
2017-10-31T04:29:37.966Z,98.22
2017-10-31T04:30:37.833Z,98.22
2017-10-31T04:31:37.876Z,98.88
2017-10-31T04:32:37.775Z,98.22
2017-10-31T04:33:37.788Z,98.41
2017-10-31T04:34:37.719Z,98.88
2017-10-31T04:35:37.801Z,98.31
2017-10-31T04:36:37.658Z,99.16
2017-10-31T04:37:37.683Z,99.16
2017-10-31T04:38:37.605Z,98.41
2017-10-31T04:39:37.626Z,98.03
2017-10-31T04:40:37.550Z,99.26
2017-10-31T04:41:37.636Z,99.07
2017-10-31T04:42:37.491Z,99.16
2017-10-31T04:43:37.549Z,98.50
2017-10-31T04:44:37.438Z,98.41
2017-10-31T04:45:37.464Z,98.31
2017-10-31T04:46:37.379Z,98.41
2017-10-31T04:47:37.475Z,98.50
2017-10-31T04:48:37.325Z,98.03
2017-10-31T04:49:37.383Z,98.50
2017-10-31T04:50:37.265Z,98.22
2017-10-31T04:51:37.300Z,98.31
2017-10-31T04:52:37.233Z,98.41
2017-10-31T04:53:37.314Z,98.22
2017-10-31T04:54:37.152Z,98.31
2017-10-31T04:55:37.225Z,98.88
2017-10-31T04:56:37.097Z,99.16
2017-10-31T04:57:37.134Z,99.07
2017-10-31T04:58:37.042Z,99.26
2017-10-31T04:59:37.149Z,98.97
2017-10-31T05:00:36.985Z,98.50
2017-10-31T05:01:37.062Z,98.88
2017-10-31T05:02:36.931Z,98.97
2017-10-31T05:03:36.972Z,98.79
2017-10-31T05:04:36.869Z,98.79
2017-10-31T05:05:36.990Z,98.79
2017-10-31T05:06:36.816Z,98.88
2017-10-31T05:07:36.896Z,99.07
2017-10-31T05:08:36.754Z,99.26
2017-10-31T05:09:36.812Z,98.69
2017-10-31T05:10:36.701Z,98.60
2017-10-31T05:11:36.825Z,99.26
2017-10-31T05:12:36.648Z,99.07
2017-10-31T05:13:36.737Z,99.07
2017-10-31T05:14:36.590Z,98.97
2017-10-31T05:15:36.650Z,99.26
2017-10-31T05:16:36.536Z,98.97
2017-10-31T05:17:36.657Z,99.07
2017-10-31T05:18:36.477Z,99.74
2017-10-31T05:19:36.572Z,99.55
2017-10-31T05:20:36.420Z,99.55
2017-10-31T05:21:36.484Z,99.64
2017-10-31T05:22:36.362Z,99.45
2017-10-31T05:23:36.494Z,99.55
2017-10-31T05:24:36.306Z,99.64
2017-10-31T05:25:36.407Z,99.64
2017-10-31T05:26:36.256Z,99.74
2017-10-31T05:27:36.317Z,99.74
2017-10-31T05:28:36.197Z,99.55
2017-10-31T05:29:36.334Z,99.55
2017-10-31T05:30:36.139Z,99.36
2017-10-31T05:31:36.245Z,99.55
2017-10-31T05:32:36.082Z,99.16
2017-10-31T05:33:36.157Z,99.64
2017-10-31T05:34:36.022Z,99.36
2017-10-31T05:35:36.170Z,99.64
2017-10-31T05:36:35.970Z,99.55
2017-10-31T05:37:36.081Z,99.45
2017-10-31T05:38:35.909Z,99.45
2017-10-31T05:39:35.993Z,99.45
2017-10-31T05:40:35.854Z,99.45
2017-10-31T05:41:36.013Z,99.55
2017-10-31T05:42:35.805Z,99.74
2017-10-31T05:43:35.918Z,99.36
2017-10-31T05:44:35.745Z,99.55
2017-10-31T05:45:35.828Z,99.55
2017-10-31T05:46:35.685Z,99.45
2017-10-31T05:47:35.845Z,99.64
2017-10-31T05:48:35.625Z,99.74
2017-10-31T05:49:35.754Z,99.74
2017-10-31T05:50:35.570Z,99.45
2017-10-31T05:51:35.666Z,99.64
2017-10-31T05:52:35.519Z,99.64
2017-10-31T05:53:35.680Z,99.99
2017-10-31T05:54:35.460Z,99.99
2017-10-31T05:55:35.591Z,99.55
2017-10-31T05:56:35.401Z,99.45
2017-10-31T05:57:35.503Z,99.74
2017-10-31T05:58:35.345Z,99.99
2017-10-31T05:59:35.517Z,99.64
2017-10-31T06:00:35.298Z,99.99
2017-10-31T06:01:35.428Z,99.64
2017-10-31T06:02:35.234Z,99.55
2017-10-31T06:03:35.340Z,99.74
2017-10-31T06:04:35.179Z,99.99
2017-10-31T06:05:35.257Z,99.99
2017-10-31T06:06:35.119Z,99.99
2017-10-31T06:07:35.265Z,99.99
2017-10-31T06:08:35.064Z,99.99
2017-10-31T06:09:35.177Z,99.99
2017-10-31T06:10:35.005Z,99.99
2017-10-31T06:11:35.088Z,99.55
2017-10-31T06:12:34.948Z,99.64
2017-10-31T06:13:35.102Z,99.74
2017-10-31T06:14:34.895Z,99.45
2017-10-31T06:15:35.023Z,99.74
2017-10-31T06:16:34.850Z,99.55
2017-10-31T06:17:35.026Z,99.36
2017-10-31T06:18:34.778Z,99.74
2017-10-31T06:19:34.939Z,99.55
2017-10-31T06:20:34.730Z,99.45
2017-10-31T06:21:34.850Z,99.55
2017-10-31T06:22:34.667Z,99.55
2017-10-31T06:23:34.761Z,99.55
2017-10-31T06:24:34.611Z,99.64
2017-10-31T06:25:34.776Z,99.55
2017-10-31T06:26:34.556Z,99.74
2017-10-31T06:27:34.687Z,99.74
2017-10-31T06:28:34.497Z,99.45
2017-10-31T06:29:34.598Z,99.74
2017-10-31T06:30:34.443Z,99.55
2017-10-31T06:31:34.514Z,99.55
2017-10-31T06:32:34.388Z,99.99
2017-10-31T06:33:34.418Z,99.74
2017-10-31T06:34:34.329Z,99.74
2017-10-31T06:35:34.336Z,99.55
2017-10-31T06:36:34.277Z,99.74
2017-10-31T06:37:34.345Z,99.55
2017-10-31T06:38:34.221Z,99.74
2017-10-31T06:39:34.256Z,99.74
2017-10-31T06:40:34.160Z,99.84
2017-10-31T06:41:34.174Z,99.74
2017-10-31T06:42:34.105Z,99.55
2017-10-31T06:43:34.184Z,99.55
2017-10-31T06:44:34.048Z,99.55
2017-10-31T06:45:34.096Z,99.55
2017-10-31T06:46:33.989Z,99.16
2017-10-31T06:47:34.007Z,99.36
2017-10-31T06:48:33.935Z,98.97
2017-10-31T06:49:34.021Z,99.16
2017-10-31T06:50:33.876Z,99.36
2017-10-31T06:51:33.933Z,99.16
2017-10-31T06:52:33.826Z,99.16
2017-10-31T06:53:33.843Z,99.07
2017-10-31T06:54:33.761Z,99.36
2017-10-31T06:55:33.857Z,98.79
2017-10-31T06:56:33.711Z,98.88
2017-10-31T06:57:33.769Z,98.88
2017-10-31T06:58:33.652Z,98.97
2017-10-31T06:59:33.654Z,99.26
2017-10-31T07:00:33.597Z,99.26
2017-10-31T07:01:34.616Z,98.88
2017-10-31T07:02:33.536Z,99.26
2017-10-31T07:03:33.605Z,98.97
2017-10-31T07:04:33.486Z,99.07
2017-10-31T07:05:33.528Z,99.07
2017-10-31T07:06:33.421Z,98.97
2017-10-31T07:07:33.531Z,99.07
2017-10-31T07:08:33.370Z,98.79
2017-10-31T07:09:33.444Z,98.79
2017-10-31T07:10:33.310Z,99.07
2017-10-31T07:11:33.354Z,98.97
2017-10-31T07:12:33.257Z,98.97
2017-10-31T07:13:33.368Z,98.97
2017-10-31T07:14:33.204Z,98.97
2017-10-31T07:15:33.278Z,98.97
2017-10-31T07:16:33.149Z,98.97
2017-10-31T07:17:33.116Z,99.07
2017-10-31T07:18:33.197Z,99.16
2017-10-31T07:19:33.058Z,98.97
2017-10-31T07:20:33.107Z,98.97
2017-10-31T07:21:33.001Z,99.16
2017-10-31T07:22:32.974Z,98.79
2017-10-31T07:23:32.951Z,99.07
2017-10-31T07:24:33.035Z,98.50
2017-10-31T07:25:32.891Z,99.16
2017-10-31T07:26:32.950Z,98.22
2017-10-31T07:27:32.836Z,98.03
2017-10-31T07:28:32.959Z,98.69
2017-10-31T07:29:32.779Z,98.31
2017-10-31T07:30:32.868Z,99.07
2017-10-31T07:31:32.719Z,98.60
2017-10-31T07:32:32.794Z,98.36
2017-10-31T07:33:32.663Z,98.27
2017-10-31T07:34:32.823Z,98.36
2017-10-31T07:35:32.610Z,97.69
2017-10-31T07:36:32.704Z,97.45
2017-10-31T07:37:32.551Z,98.08
2017-10-31T07:38:32.620Z,97.64
2017-10-31T07:39:32.496Z,97.69
2017-10-31T07:40:32.630Z,98.08
2017-10-31T07:41:32.439Z,97.88
2017-10-31T07:42:32.545Z,98.03
2017-10-31T07:43:32.385Z,97.64
2017-10-31T07:44:32.454Z,97.93
2017-10-31T07:45:32.327Z,98.31
2017-10-31T07:46:32.470Z,98.17
2017-10-31T07:47:32.269Z,97.79
2017-10-31T07:48:32.379Z,97.98
2017-10-31T07:49:32.212Z,98.17
2017-10-31T07:50:32.309Z,98.27
2017-10-31T07:51:32.161Z,98.27
2017-10-31T07:52:32.319Z,97.69
2017-10-31T07:53:32.098Z,97.98
2017-10-31T07:54:32.216Z,98.36
2017-10-31T07:55:32.046Z,97.79
2017-10-31T07:56:32.131Z,97.88
2017-10-31T07:57:31.998Z,98.08
2017-10-31T07:58:32.143Z,97.69
2017-10-31T07:59:31.935Z,97.69
2017-10-31T08:00:32.055Z,97.69
2017-10-31T08:01:31.879Z,97.69
2017-10-31T08:02:31.963Z,97.88
2017-10-31T08:03:31.829Z,97.60
2017-10-31T08:04:31.977Z,97.98
2017-10-31T08:05:31.773Z,98.27
2017-10-31T08:06:31.888Z,97.79
2017-10-31T08:07:31.713Z,97.69
2017-10-31T08:08:31.801Z,97.79
2017-10-31T08:09:31.650Z,97.88
2017-10-31T08:10:31.823Z,96.94
2017-10-31T08:11:31.600Z,97.41
2017-10-31T08:12:31.726Z,98.08
2017-10-31T08:13:31.541Z,97.22
2017-10-31T08:14:31.637Z,97.41
2017-10-31T08:15:31.491Z,97.50
2017-10-31T08:16:31.656Z,96.94
2017-10-31T08:17:31.430Z,96.94
2017-10-31T08:18:31.564Z,97.31
2017-10-31T08:19:31.375Z,96.46
2017-10-31T08:20:31.395Z,96.46
2017-10-31T08:21:31.318Z,96.26
2017-10-31T08:22:31.405Z,96.84
2017-10-31T08:23:31.267Z,96.17
2017-10-31T08:24:31.238Z,96.31
2017-10-31T08:25:31.209Z,96.51
2017-10-31T08:26:31.190Z,96.41
2017-10-31T08:27:31.151Z,95.94
2017-10-31T08:28:31.227Z,94.60
2017-10-31T08:29:31.101Z,95.46
2017-10-31T08:30:31.137Z,95.56
2017-10-31T08:31:31.053Z,95.27
2017-10-31T08:32:31.020Z,95.56
2017-10-31T08:33:30.984Z,94.60
2017-10-31T08:34:31.058Z,94.79
2017-10-31T08:35:30.930Z,94.22
2017-10-31T08:36:30.975Z,94.13
2017-10-31T08:37:30.877Z,94.13
2017-10-31T08:38:30.881Z,93.37
2017-10-31T08:39:30.819Z,94.22
2017-10-31T08:40:30.897Z,94.22
2017-10-31T08:41:30.780Z,94.51
2017-10-31T08:42:30.809Z,93.37
2017-10-31T08:43:30.709Z,93.46
2017-10-31T08:44:31.248Z,93.55
2017-10-31T08:45:30.656Z,94.03
2017-10-31T08:46:30.626Z,93.37
2017-10-31T08:47:30.638Z,93.65
2017-10-31T08:48:30.575Z,93.08
2017-10-31T08:49:30.651Z,92.99
2017-10-31T08:50:30.520Z,92.99
2017-10-31T08:51:30.562Z,93.37
2017-10-31T08:52:30.462Z,93.03
2017-10-31T08:53:30.474Z,92.99
2017-10-31T08:54:30.412Z,92.46
2017-10-31T08:55:30.492Z,92.55
2017-10-31T08:56:30.354Z,92.27
2017-10-31T08:57:30.405Z,92.46
2017-10-31T08:58:30.298Z,91.89
2017-10-31T08:59:30.315Z,92.55
2017-10-31T09:00:30.252Z,92.27
2017-10-31T09:01:30.216Z,91.89
2017-10-31T09:02:30.190Z,91.70
2017-10-31T09:03:30.236Z,91.03
2017-10-31T09:04:30.136Z,91.51
2017-10-31T09:05:30.150Z,91.22
2017-10-31T09:06:30.084Z,91.51
2017-10-31T09:07:30.053Z,91.41
2017-10-31T09:08:30.071Z,91.70
2017-10-31T09:09:30.002Z,91.41
2017-10-31T09:10:30.119Z,91.22
2017-10-31T09:11:29.948Z,91.22
2017-10-31T09:12:29.992Z,91.51
2017-10-31T09:13:29.896Z,90.84
2017-10-31T09:14:29.906Z,89.79
2017-10-31T09:15:29.836Z,90.36
2017-10-31T09:16:29.917Z,91.27
2017-10-31T09:17:29.791Z,90.26
2017-10-31T09:18:29.826Z,87.87
2017-10-31T09:19:29.732Z,82.52
2017-10-31T09:20:29.739Z,79.75
2017-10-31T09:21:29.674Z,80.09
2017-10-31T09:22:29.758Z,80.62
2017-10-31T09:23:29.625Z,82.11
2017-10-31T09:24:29.668Z,83.73
2017-10-31T09:25:29.570Z,84.88
2017-10-31T09:26:29.547Z,85.88
2017-10-31T09:27:29.518Z,86.36
2017-10-31T09:28:29.592Z,86.83
2017-10-31T09:29:29.470Z,87.40
2017-10-31T09:30:29.504Z,87.02
2017-10-31T09:31:29.419Z,86.93
2017-10-31T09:32:29.517Z,87.12
2017-10-31T09:33:29.367Z,86.98
2017-10-31T09:34:29.448Z,87.17
2017-10-31T09:35:29.315Z,88.12
2017-10-31T09:36:29.336Z,88.31
2017-10-31T09:37:29.257Z,88.98
2017-10-31T09:38:29.261Z,88.12
2017-10-31T09:39:29.213Z,88.03
2017-10-31T09:40:29.266Z,87.74
2017-10-31T09:41:29.158Z,87.27
2017-10-31T09:42:29.176Z,87.27
2017-10-31T09:43:29.111Z,87.74
2017-10-31T09:44:29.190Z,87.27
2017-10-31T09:45:29.056Z,86.69
2017-10-31T09:46:29.098Z,87.27
2017-10-31T09:47:29.000Z,87.40
2017-10-31T09:48:29.011Z,88.07
2017-10-31T09:49:28.948Z,87.31
2017-10-31T09:50:29.041Z,86.93
2017-10-31T09:51:28.901Z,86.78
2017-10-31T09:52:28.935Z,85.54
2017-10-31T09:53:28.848Z,85.73
2017-10-31T09:54:28.952Z,84.55
2017-10-31T09:55:28.795Z,85.45
2017-10-31T09:56:28.860Z,84.49
2017-10-31T09:57:28.744Z,84.55
2017-10-31T09:58:28.877Z,85.35
2017-10-31T09:59:28.688Z,85.83
2017-10-31T10:00:28.788Z,84.88
2017-10-31T10:01:28.639Z,84.88
2017-10-31T10:02:28.706Z,82.78
2017-10-31T10:03:28.585Z,83.54
2017-10-31T10:04:28.711Z,84.16
2017-10-31T10:05:28.531Z,83.88
2017-10-31T10:06:28.622Z,84.40
2017-10-31T10:07:28.486Z,84.36
2017-10-31T10:08:28.533Z,84.26
2017-10-31T10:09:28.434Z,84.83
2017-10-31T10:10:28.554Z,84.45
2017-10-31T10:11:28.382Z,85.21
2017-10-31T10:12:28.461Z,85.41
2017-10-31T10:13:28.328Z,85.69
2017-10-31T10:14:28.473Z,86.07
2017-10-31T10:15:28.279Z,85.88
2017-10-31T10:16:28.385Z,86.26
2017-10-31T10:17:28.223Z,85.88
2017-10-31T10:18:28.300Z,85.60
2017-10-31T10:19:28.174Z,86.16
2017-10-31T10:20:28.334Z,86.45
2017-10-31T10:21:28.119Z,86.55
2017-10-31T10:22:29.275Z,85.97
2017-10-31T10:23:28.071Z,85.69
2017-10-31T10:24:28.137Z,84.88
2017-10-31T10:25:28.019Z,84.64
2017-10-31T10:26:28.156Z,85.06
2017-10-31T10:27:27.964Z,84.59
2017-10-31T10:28:28.062Z,84.30
2017-10-31T10:29:27.916Z,84.16
2017-10-31T10:30:28.077Z,83.88
2017-10-31T10:31:27.865Z,84.49
2017-10-31T10:32:27.987Z,84.88
2017-10-31T10:33:27.810Z,84.83
2017-10-31T10:34:27.900Z,84.88
2017-10-31T10:35:27.761Z,84.11
2017-10-31T10:36:27.913Z,84.11
2017-10-31T10:37:27.708Z,84.07
2017-10-31T10:38:27.823Z,84.83
2017-10-31T10:39:27.657Z,84.55
2017-10-31T10:40:27.735Z,84.36
2017-10-31T10:41:27.605Z,84.55
2017-10-31T10:42:27.749Z,84.64
2017-10-31T10:43:27.551Z,85.31
2017-10-31T10:44:27.662Z,85.02
2017-10-31T10:45:27.502Z,85.31
2017-10-31T10:46:27.572Z,85.02
2017-10-31T10:47:27.451Z,84.45
2017-10-31T10:48:27.589Z,85.21
2017-10-31T10:49:27.398Z,84.88
2017-10-31T10:50:27.410Z,84.26
2017-10-31T10:51:27.346Z,84.16
2017-10-31T10:52:27.511Z,84.40
2017-10-31T10:53:27.290Z,84.26
2017-10-31T10:54:27.422Z,84.30
2017-10-31T10:55:27.242Z,83.88
2017-10-31T10:56:27.335Z,84.78
2017-10-31T10:57:27.189Z,84.30
2017-10-31T10:58:27.255Z,83.69
2017-10-31T10:59:27.139Z,83.92
2017-10-31T11:00:27.257Z,84.01
2017-10-31T11:01:27.081Z,83.54
2017-10-31T11:02:27.174Z,83.83
2017-10-31T11:03:27.031Z,83.54
2017-10-31T11:04:27.183Z,82.97
2017-10-31T11:05:26.985Z,83.06
2017-10-31T11:06:27.092Z,82.87
2017-10-31T11:07:26.935Z,83.73
2017-10-31T11:08:27.008Z,83.25
2017-10-31T11:09:26.878Z,83.44
2017-10-31T11:10:26.917Z,83.06
2017-10-31T11:11:26.830Z,83.44
2017-10-31T11:12:26.929Z,83.25
2017-10-31T11:13:26.776Z,83.25
2017-10-31T11:14:26.944Z,83.92
2017-10-31T11:15:26.730Z,83.73
2017-10-31T11:16:26.855Z,83.35
2017-10-31T11:17:26.668Z,82.87
2017-10-31T11:18:26.765Z,82.78
2017-10-31T11:19:26.623Z,82.68
2017-10-31T11:20:26.786Z,82.11
2017-10-31T11:21:26.569Z,82.49
2017-10-31T11:22:26.589Z,82.87
2017-10-31T11:23:26.517Z,82.30
2017-10-31T11:24:26.604Z,82.91
2017-10-31T11:25:26.468Z,82.11
2017-10-31T11:26:26.517Z,81.73
2017-10-31T11:27:26.419Z,82.49
2017-10-31T11:28:26.432Z,82.49
2017-10-31T11:29:26.369Z,82.30
2017-10-31T11:30:26.441Z,81.86
2017-10-31T11:31:26.316Z,82.15
2017-10-31T11:32:26.359Z,81.67
2017-10-31T11:33:26.262Z,81.10
2017-10-31T11:34:26.280Z,81.58
2017-10-31T11:35:26.213Z,81.48
2017-10-31T11:36:26.281Z,81.20
2017-10-31T11:37:26.162Z,81.20
2017-10-31T11:38:26.187Z,81.48
2017-10-31T11:39:26.113Z,81.20
2017-10-31T11:40:26.202Z,81.20
2017-10-31T11:41:26.054Z,82.34
2017-10-31T11:42:26.115Z,81.38
2017-10-31T11:43:26.017Z,81.86
2017-10-31T11:44:26.026Z,81.29
2017-10-31T11:45:25.962Z,80.72
2017-10-31T11:46:25.934Z,80.91
2017-10-31T11:47:26.057Z,80.43
2017-10-31T11:48:25.884Z,81.38
2017-10-31T11:49:27.762Z,82.53
2017-10-31T11:50:25.833Z,81.48
2017-10-31T11:51:25.808Z,81.01
2017-10-31T11:52:25.784Z,81.48
2017-10-31T11:53:25.886Z,81.15
2017-10-31T11:54:25.740Z,81.82
2017-10-31T11:55:25.802Z,81.15
2017-10-31T11:56:25.677Z,81.35
2017-10-31T11:57:25.705Z,81.25
2017-10-31T11:58:25.625Z,81.44
2017-10-31T11:59:25.723Z,82.40
2017-10-31T12:00:25.579Z,82.59
2017-10-31T12:01:25.631Z,82.40
2017-10-31T12:02:25.538Z,81.82
2017-10-31T12:03:25.648Z,81.92
2017-10-31T12:04:25.483Z,82.01
2017-10-31T12:05:25.560Z,81.63
2017-10-31T12:06:25.426Z,81.44
2017-10-31T12:07:25.472Z,81.15
2017-10-31T12:08:25.375Z,81.63
2017-10-31T12:09:25.481Z,82.01
2017-10-31T12:10:25.323Z,82.20
2017-10-31T12:11:25.393Z,82.30
2017-10-31T12:12:25.273Z,81.96
2017-10-31T12:13:25.306Z,82.01
2017-10-31T12:14:25.218Z,81.63
2017-10-31T12:15:25.326Z,81.63
2017-10-31T12:16:25.169Z,81.63
2017-10-31T12:17:25.230Z,82.20
2017-10-31T12:18:25.114Z,81.92
2017-10-31T12:19:25.245Z,82.11
2017-10-31T12:20:25.070Z,82.91
2017-10-31T12:21:25.157Z,82.53
2017-10-31T12:22:25.014Z,82.82
2017-10-31T12:23:25.068Z,82.20
2017-10-31T12:24:24.962Z,81.92
2017-10-31T12:25:25.082Z,82.30
2017-10-31T12:26:24.916Z,82.20
2017-10-31T12:27:24.994Z,82.30
2017-10-31T12:28:24.864Z,82.78
2017-10-31T12:29:24.904Z,82.40
2017-10-31T12:30:24.887Z,82.40
2017-10-31T12:31:24.918Z,82.68
2017-10-31T12:32:24.767Z,82.40
2017-10-31T12:33:24.876Z,82.30
2017-10-31T12:34:24.713Z,81.92
2017-10-31T12:35:24.842Z,81.54
2017-10-31T12:36:24.664Z,81.73
2017-10-31T12:37:24.756Z,81.44
2017-10-31T12:38:24.607Z,81.63
2017-10-31T12:39:24.669Z,81.92
2017-10-31T12:40:24.557Z,82.59
2017-10-31T12:41:24.761Z,82.11
2017-10-31T12:42:24.503Z,82.49
2017-10-31T12:43:24.697Z,82.40
2017-10-31T12:44:24.457Z,82.78
2017-10-31T12:45:24.609Z,81.92
2017-10-31T12:46:24.406Z,82.87
2017-10-31T12:47:24.516Z,82.97
2017-10-31T12:48:24.351Z,83.25
2017-10-31T12:49:24.448Z,82.78
2017-10-31T12:50:24.298Z,83.44
2017-10-31T12:51:24.452Z,84.01
2017-10-31T12:52:24.258Z,83.73